Kilkenny, Ireland

9:25 AM IST on May 05, 2015 (GMT +0100)
Kilkenny | | Change Station
CLOSE
Current Station
Personal Weather Station
Location: Kilkenny City, Co. Kilkenny
Elevation: 160 ft
Nearby Weather Stations

Elev 160 ft 52.66 °N, 7.25 °W | Updated 3 minutes ago

Scattered Clouds
Scattered Clouds
45.3 °F
Feels Like 45 °F
N
0.0
Wind Variable Wind from SW
Gusts 13.0 mph

Today
High -- | Low -- °F
--% Chance of Precip.
Yesterday
High -- | Low -- °F
Precip. -- in
5:50 AM 9:02 PM
Full, 98% visible
Pressure 29.15 in
Visibility 6.2 miles
Clouds Few 2000 ft
Scattered Clouds 4500 ft
Windchill 45 °F
Dew Point 44 °F
Humidity 97%
Rainfall 0.35 in
Snow Depth Not available.
UV 2 out of 12
Pollen Not available.
Air Quality Not available.
Flu Activity Not available.
METAR EIWF 050800Z 26009KT 200V300 9999 FEW020 SCT045 08/07 Q0987 R21/2/////

More Conditions Fewer Conditions

Pressure 29.15 in
Visibility 6.2 miles
Clouds Few 2000 ft
Scattered Clouds 4500 ft
Windchill 45 °F
Dew Point 44 °F
Humidity 97%
Rainfall 0.35 in
Snow Depth Not available.
UV 2 out of 12
Pollen Not available.
Air Quality Not available.
Flu Activity Not available.
METAR EIWF 050800Z 26009KT 200V300 9999 FEW020 SCT045 08/07 Q0987 R21/2/////

More Conditions Fewer Conditions

10-Day Weather Forecast

Almanac

Astronomy

May. 05, 2015 Rise Set
Actual Time
Civil Twilight
Nautical Twilight
Astronomical Twilight
Moon
Length of Visible Light
Length of Day
Tomorrow will be .
, % of the Moon is Illuminated

Today's Extremes

Country Highs Country Lows

Community

WunderPhotos

Upload Photos

1,818,814 photos uploaded!

WunderBlogs® & News

Nearby

Air Quality

  Air Quality AQ Index Pollutant
Not available.

Snow Depth

Station Depth Elevation

Earthquake Activity

City Distance Mag. Time & Date
Minimum magnitude displayed is 2.5.

Coastal Water Temperatures

Place Temperature

Stations

Nearby Weather Stations

Station Location Temp. Windchill Dew Point Humidity Wind Precip. Elev Updated Type